sensor_id;sensor_type;location;lat;lon;timestamp;P1;durP1;ratioP1;P2;durP2;ratioP2
57047;SDS011;42934;54.294;18.598;2024-03-22T00:00:04;21.30;;;11.82;;
57047;SDS011;42934;54.294;18.598;2024-03-22T00:03:00;24.27;;;12.10;;
57047;SDS011;42934;54.294;18.598;2024-03-22T00:05:27;24.13;;;12.88;;
57047;SDS011;42934;54.294;18.598;2024-03-22T00:07:55;23.95;;;12.15;;
57047;SDS011;42934;54.294;18.598;2024-03-22T00:10:24;26.85;;;12.98;;
57047;SDS011;42934;54.294;18.598;2024-03-22T00:12:52;28.27;;;13.88;;
57047;SDS011;42934;54.294;18.598;2024-03-22T00:15:19;25.75;;;13.68;;
57047;SDS011;42934;54.294;18.598;2024-03-22T00:17:48;26.90;;;13.13;;
57047;SDS011;42934;54.294;18.598;2024-03-22T00:20:15;29.63;;;14.25;;
57047;SDS011;42934;54.294;18.598;2024-03-22T00:22:44;28.27;;;14.05;;
57047;SDS011;42934;54.294;18.598;2024-03-22T00:25:11;27.67;;;13.80;;
57047;SDS011;42934;54.294;18.598;2024-03-22T00:27:41;31.95;;;15.13;;
57047;SDS011;42934;54.294;18.598;2024-03-22T00:30:08;28.65;;;14.00;;
57047;SDS011;42934;54.294;18.598;2024-03-22T00:32:37;30.23;;;14.45;;
57047;SDS011;42934;54.294;18.598;2024-03-22T00:35:04;28.92;;;14.20;;
57047;SDS011;42934;54.294;18.598;2024-03-22T00:37:33;31.00;;;14.90;;
57047;SDS011;42934;54.294;18.598;2024-03-22T00:40:00;32.20;;;15.38;;
57047;SDS011;42934;54.294;18.598;2024-03-22T00:42:28;32.38;;;14.25;;
57047;SDS011;42934;54.294;18.598;2024-03-22T00:44:58;33.88;;;15.57;;
57047;SDS011;42934;54.294;18.598;2024-03-22T00:47:26;32.30;;;14.40;;
57047;SDS011;42934;54.294;18.598;2024-03-22T00:49:53;34.88;;;15.73;;
57047;SDS011;42934;54.294;18.598;2024-03-22T00:52:22;32.35;;;15.18;;
57047;SDS011;42934;54.294;18.598;2024-03-22T00:54:51;33.60;;;15.20;;
57047;SDS011;42934;54.294;18.598;2024-03-22T00:57:20;33.25;;;15.27;;
57047;SDS011;42934;54.294;18.598;2024-03-22T00:59:47;35.85;;;14.32;;
57047;SDS011;42934;54.294;18.598;2024-03-22T01:02:16;29.73;;;14.45;;
57047;SDS011;42934;54.294;18.598;2024-03-22T01:04:44;28.38;;;13.65;;
57047;SDS011;42934;54.294;18.598;2024-03-22T01:07:12;32.58;;;15.95;;
57047;SDS011;42934;54.294;18.598;2024-03-22T01:09:39;31.65;;;14.43;;
57047;SDS011;42934;54.294;18.598;2024-03-22T01:12:10;31.05;;;13.75;;
57047;SDS011;42934;54.294;18.598;2024-03-22T01:14:37;28.52;;;14.15;;
57047;SDS011;42934;54.294;18.598;2024-03-22T01:17:05;27.23;;;13.35;;
57047;SDS011;42934;54.294;18.598;2024-03-22T01:19:34;29.83;;;14.55;;
57047;SDS011;42934;54.294;18.598;2024-03-22T01:22:02;28.25;;;13.93;;
57047;SDS011;42934;54.294;18.598;2024-03-22T01:24:30;32.17;;;14.20;;
57047;SDS011;42934;54.294;18.598;2024-03-22T01:26:58;28.90;;;14.70;;
57047;SDS011;42934;54.294;18.598;2024-03-22T01:29:25;32.92;;;14.82;;
57047;SDS011;42934;54.294;18.598;2024-03-22T01:31:57;27.88;;;12.82;;
57047;SDS011;42934;54.294;18.598;2024-03-22T01:34:24;31.58;;;15.20;;
57047;SDS011;42934;54.294;18.598;2024-03-22T01:36:54;33.45;;;15.15;;
57047;SDS011;42934;54.294;18.598;2024-03-22T01:39:21;31.75;;;15.02;;
57047;SDS011;42934;54.294;18.598;2024-03-22T01:41:50;36.42;;;15.02;;
57047;SDS011;42934;54.294;18.598;2024-03-22T01:44:17;34.30;;;15.18;;
57047;SDS011;42934;54.294;18.598;2024-03-22T01:46:46;30.30;;;15.30;;
57047;SDS011;42934;54.294;18.598;2024-03-22T01:49:15;34.75;;;13.55;;
57047;SDS011;42934;54.294;18.598;2024-03-22T01:51:44;30.20;;;15.10;;
57047;SDS011;42934;54.294;18.598;2024-03-22T01:54:12;31.85;;;14.23;;
57047;SDS011;42934;54.294;18.598;2024-03-22T01:56:42;29.60;;;13.10;;
57047;SDS011;42934;54.294;18.598;2024-03-22T01:59:10;29.63;;;14.02;;
57047;SDS011;42934;54.294;18.598;2024-03-22T02:01:39;30.65;;;13.48;;
57047;SDS011;42934;54.294;18.598;2024-03-22T02:04:06;28.80;;;12.50;;
57047;SDS011;42934;54.294;18.598;2024-03-22T02:06:35;29.67;;;13.43;;
57047;SDS011;42934;54.294;18.598;2024-03-22T02:09:02;27.45;;;12.85;;
57047;SDS011;42934;54.294;18.598;2024-03-22T02:11:33;32.22;;;14.32;;
57047;SDS011;42934;54.294;18.598;2024-03-22T02:14:01;35.53;;;14.88;;
57047;SDS011;42934;54.294;18.598;2024-03-22T02:16:30;26.27;;;12.20;;
57047;SDS011;42934;54.294;18.598;2024-03-22T02:18:57;27.02;;;12.13;;
57047;SDS011;42934;54.294;18.598;2024-03-22T02:21:25;33.53;;;13.05;;
57047;SDS011;42934;54.294;18.598;2024-03-22T02:23:54;28.50;;;13.48;;
57047;SDS011;42934;54.294;18.598;2024-03-22T02:26:22;33.72;;;14.25;;
57047;SDS011;42934;54.294;18.598;2024-03-22T02:28:49;30.35;;;14.68;;
57047;SDS011;42934;54.294;18.598;2024-03-22T02:31:18;30.95;;;13.90;;
57047;SDS011;42934;54.294;18.598;2024-03-22T02:33:45;31.77;;;13.70;;
57047;SDS011;42934;54.294;18.598;2024-03-22T02:36:14;26.90;;;13.20;;
57047;SDS011;42934;54.294;18.598;2024-03-22T02:38:41;31.00;;;14.02;;
57047;SDS011;42934;54.294;18.598;2024-03-22T02:41:11;31.23;;;14.40;;
57047;SDS011;42934;54.294;18.598;2024-03-22T02:43:38;29.88;;;13.07;;
57047;SDS011;42934;54.294;18.598;2024-03-22T02:46:06;29.55;;;14.18;;
57047;SDS011;42934;54.294;18.598;2024-03-22T02:48:33;30.05;;;13.48;;
57047;SDS011;42934;54.294;18.598;2024-03-22T02:51:02;30.48;;;13.75;;
57047;SDS011;42934;54.294;18.598;2024-03-22T02:53:29;32.00;;;14.65;;
57047;SDS011;42934;54.294;18.598;2024-03-22T02:55:59;30.25;;;13.63;;
57047;SDS011;42934;54.294;18.598;2024-03-22T02:58:28;28.58;;;13.43;;
57047;SDS011;42934;54.294;18.598;2024-03-22T03:00:56;29.45;;;14.50;;
57047;SDS011;42934;54.294;18.598;2024-03-22T03:03:23;32.70;;;14.30;;
57047;SDS011;42934;54.294;18.598;2024-03-22T03:05:52;32.78;;;14.85;;
57047;SDS011;42934;54.294;18.598;2024-03-22T03:08:19;28.10;;;13.32;;
57047;SDS011;42934;54.294;18.598;2024-03-22T03:10:47;33.40;;;14.63;;
57047;SDS011;42934;54.294;18.598;2024-03-22T03:13:15;29.52;;;13.48;;
57047;SDS011;42934;54.294;18.598;2024-03-22T03:15:44;29.77;;;14.52;;
57047;SDS011;42934;54.294;18.598;2024-03-22T03:18:11;29.70;;;13.80;;
57047;SDS011;42934;54.294;18.598;2024-03-22T03:20:40;31.60;;;14.65;;
57047;SDS011;42934;54.294;18.598;2024-03-22T03:23:07;31.30;;;14.73;;
57047;SDS011;42934;54.294;18.598;2024-03-22T03:25:35;30.30;;;13.57;;
57047;SDS011;42934;54.294;18.598;2024-03-22T03:28:03;28.80;;;14.15;;
57047;SDS011;42934;54.294;18.598;2024-03-22T03:30:33;32.40;;;15.05;;
57047;SDS011;42934;54.294;18.598;2024-03-22T03:33:02;32.40;;;14.70;;
57047;SDS011;42934;54.294;18.598;2024-03-22T03:35:31;31.85;;;14.30;;
57047;SDS011;42934;54.294;18.598;2024-03-22T03:37:58;28.70;;;14.32;;
57047;SDS011;42934;54.294;18.598;2024-03-22T03:40:27;27.08;;;13.15;;
57047;SDS011;42934;54.294;18.598;2024-03-22T03:42:54;31.45;;;13.18;;
57047;SDS011;42934;54.294;18.598;2024-03-22T03:45:22;29.52;;;14.18;;
57047;SDS011;42934;54.294;18.598;2024-03-22T03:47:49;28.65;;;13.40;;
57047;SDS011;42934;54.294;18.598;2024-03-22T03:50:19;27.85;;;13.45;;
57047;SDS011;42934;54.294;18.598;2024-03-22T03:52:46;29.05;;;13.65;;
57047;SDS011;42934;54.294;18.598;2024-03-22T03:55:15;26.45;;;13.57;;
57047;SDS011;42934;54.294;18.598;2024-03-22T03:57:42;27.25;;;13.25;;
57047;SDS011;42934;54.294;18.598;2024-03-22T04:00:10;29.70;;;13.68;;
57047;SDS011;42934;54.294;18.598;2024-03-22T04:02:38;28.38;;;12.55;;
57047;SDS011;42934;54.294;18.598;2024-03-22T04:05:06;27.90;;;12.88;;
57047;SDS011;42934;54.294;18.598;2024-03-22T04:07:35;24.73;;;12.20;;
57047;SDS011;42934;54.294;18.598;2024-03-22T04:10:05;29.35;;;14.25;;
57047;SDS011;42934;54.294;18.598;2024-03-22T04:12:32;29.38;;;13.30;;
57047;SDS011;42934;54.294;18.598;2024-03-22T04:15:01;26.38;;;12.32;;
57047;SDS011;42934;54.294;18.598;2024-03-22T04:17:28;26.70;;;12.98;;
57047;SDS011;42934;54.294;18.598;2024-03-22T04:19:56;27.98;;;13.02;;
57047;SDS011;42934;54.294;18.598;2024-03-22T04:22:23;25.42;;;12.68;;
57047;SDS011;42934;54.294;18.598;2024-03-22T04:24:53;25.48;;;12.07;;
57047;SDS011;42934;54.294;18.598;2024-03-22T04:27:21;23.02;;;12.60;;
57047;SDS011;42934;54.294;18.598;2024-03-22T04:29:49;23.95;;;12.07;;
57047;SDS011;42934;54.294;18.598;2024-03-22T04:32:16;27.42;;;12.50;;
57047;SDS011;42934;54.294;18.598;2024-03-22T04:34:45;24.13;;;12.60;;
57047;SDS011;42934;54.294;18.598;2024-03-22T04:37:12;26.95;;;12.73;;
57047;SDS011;42934;54.294;18.598;2024-03-22T04:39:40;26.15;;;11.88;;
57047;SDS011;42934;54.294;18.598;2024-03-22T04:42:10;27.17;;;12.52;;
57047;SDS011;42934;54.294;18.598;2024-03-22T04:44:38;23.42;;;12.60;;
57047;SDS011;42934;54.294;18.598;2024-03-22T04:47:06;25.27;;;12.10;;
57047;SDS011;42934;54.294;18.598;2024-03-22T04:49:34;24.08;;;11.85;;
57047;SDS011;42934;54.294;18.598;2024-03-22T04:52:02;25.65;;;12.05;;
57047;SDS011;42934;54.294;18.598;2024-03-22T04:54:29;25.60;;;12.13;;
57047;SDS011;42934;54.294;18.598;2024-03-22T04:56:58;24.88;;;12.70;;
57047;SDS011;42934;54.294;18.598;2024-03-22T04:59:26;25.60;;;12.70;;
57047;SDS011;42934;54.294;18.598;2024-03-22T05:01:55;23.25;;;11.85;;
57047;SDS011;42934;54.294;18.598;2024-03-22T05:04:23;23.65;;;12.48;;
57047;SDS011;42934;54.294;18.598;2024-03-22T05:06:50;26.98;;;12.82;;
57047;SDS011;42934;54.294;18.598;2024-03-22T05:09:18;25.88;;;13.30;;
57047;SDS011;42934;54.294;18.598;2024-03-22T05:11:45;23.00;;;12.05;;
57047;SDS011;42934;54.294;18.598;2024-03-22T05:14:18;27.83;;;12.70;;
57047;SDS011;42934;54.294;18.598;2024-03-22T05:16:46;28.67;;;13.25;;
57047;SDS011;42934;54.294;18.598;2024-03-22T05:19:15;26.25;;;12.65;;
57047;SDS011;42934;54.294;18.598;2024-03-22T05:21:42;29.25;;;13.70;;
57047;SDS011;42934;54.294;18.598;2024-03-22T05:24:10;26.75;;;13.23;;
57047;SDS011;42934;54.294;18.598;2024-03-22T05:26:37;23.63;;;12.13;;
57047;SDS011;42934;54.294;18.598;2024-03-22T05:29:06;26.00;;;13.45;;
57047;SDS011;42934;54.294;18.598;2024-03-22T05:31:33;24.42;;;12.77;;
57047;SDS011;42934;54.294;18.598;2024-03-22T05:34:17;29.13;;;13.15;;
57047;SDS011;42934;54.294;18.598;2024-03-22T05:36:44;27.20;;;14.10;;
57047;SDS011;42934;54.294;18.598;2024-03-22T05:39:13;28.30;;;13.85;;
57047;SDS011;42934;54.294;18.598;2024-03-22T05:41:40;26.30;;;13.27;;
57047;SDS011;42934;54.294;18.598;2024-03-22T05:44:08;24.63;;;12.48;;
57047;SDS011;42934;54.294;18.598;2024-03-22T05:46:36;27.20;;;14.35;;
57047;SDS011;42934;54.294;18.598;2024-03-22T05:49:05;28.67;;;13.30;;
57047;SDS011;42934;54.294;18.598;2024-03-22T05:51:33;28.98;;;14.25;;
57047;SDS011;42934;54.294;18.598;2024-03-22T05:54:02;29.20;;;13.93;;
57047;SDS011;42934;54.294;18.598;2024-03-22T05:56:29;30.90;;;14.32;;
57047;SDS011;42934;54.294;18.598;2024-03-22T05:58:57;30.85;;;15.40;;
57047;SDS011;42934;54.294;18.598;2024-03-22T06:01:25;27.90;;;14.10;;
57047;SDS011;42934;54.294;18.598;2024-03-22T06:03:54;31.27;;;15.07;;
57047;SDS011;42934;54.294;18.598;2024-03-22T06:06:22;31.23;;;14.40;;
57047;SDS011;42934;54.294;18.598;2024-03-22T06:08:52;26.35;;;13.82;;
57047;SDS011;42934;54.294;18.598;2024-03-22T06:11:20;28.33;;;14.60;;
57047;SDS011;42934;54.294;18.598;2024-03-22T06:13:48;29.85;;;14.43;;
57047;SDS011;42934;54.294;18.598;2024-03-22T06:16:16;30.30;;;14.45;;
57047;SDS011;42934;54.294;18.598;2024-03-22T06:18:45;27.70;;;13.43;;
57047;SDS011;42934;54.294;18.598;2024-03-22T06:21:12;26.60;;;13.10;;
57047;SDS011;42934;54.294;18.598;2024-03-22T06:23:42;26.90;;;13.30;;
57047;SDS011;42934;54.294;18.598;2024-03-22T06:26:09;23.15;;;12.75;;
57047;SDS011;42934;54.294;18.598;2024-03-22T06:28:37;27.48;;;13.20;;
57047;SDS011;42934;54.294;18.598;2024-03-22T06:31:04;27.52;;;13.00;;
57047;SDS011;42934;54.294;18.598;2024-03-22T06:33:34;26.97;;;12.80;;
57047;SDS011;42934;54.294;18.598;2024-03-22T06:36:01;29.30;;;13.55;;
57047;SDS011;42934;54.294;18.598;2024-03-22T06:38:30;25.88;;;12.25;;
57047;SDS011;42934;54.294;18.598;2024-03-22T06:40:58;29.02;;;12.82;;
57047;SDS011;42934;54.294;18.598;2024-03-22T06:43:27;24.67;;;12.52;;
57047;SDS011;42934;54.294;18.598;2024-03-22T06:45:54;23.60;;;12.15;;
57047;SDS011;42934;54.294;18.598;2024-03-22T06:48:22;21.92;;;11.85;;
57047;SDS011;42934;54.294;18.598;2024-03-22T06:50:49;24.25;;;12.23;;
57047;SDS011;42934;54.294;18.598;2024-03-22T06:53:18;23.77;;;11.27;;
57047;SDS011;42934;54.294;18.598;2024-03-22T06:55:45;22.00;;;11.40;;
57047;SDS011;42934;54.294;18.598;2024-03-22T06:58:15;25.08;;;11.85;;
57047;SDS011;42934;54.294;18.598;2024-03-22T07:00:42;23.98;;;11.07;;
57047;SDS011;42934;54.294;18.598;2024-03-22T07:03:10;23.08;;;11.68;;
57047;SDS011;42934;54.294;18.598;2024-03-22T07:05:37;22.80;;;11.25;;
57047;SDS011;42934;54.294;18.598;2024-03-22T07:08:06;22.50;;;11.13;;
57047;SDS011;42934;54.294;18.598;2024-03-22T07:10:33;22.73;;;11.18;;
57047;SDS011;42934;54.294;18.598;2024-03-22T07:13:05;19.52;;;10.07;;
57047;SDS011;42934;54.294;18.598;2024-03-22T07:15:34;23.05;;;11.73;;
57047;SDS011;42934;54.294;18.598;2024-03-22T07:18:02;22.38;;;11.23;;
57047;SDS011;42934;54.294;18.598;2024-03-22T07:20:30;20.00;;;10.73;;
57047;SDS011;42934;54.294;18.598;2024-03-22T07:22:58;26.25;;;10.40;;
57047;SDS011;42934;54.294;18.598;2024-03-22T07:25:25;20.92;;;10.55;;
57047;SDS011;42934;54.294;18.598;2024-03-22T07:27:54;18.98;;;10.57;;
57047;SDS011;42934;54.294;18.598;2024-03-22T07:30:21;17.48;;;9.10;;
57047;SDS011;42934;54.294;18.598;2024-03-22T07:32:50;20.30;;;10.05;;
57047;SDS011;42934;54.294;18.598;2024-03-22T07:35:18;17.38;;;9.35;;
57047;SDS011;42934;54.294;18.598;2024-03-22T07:37:46;18.58;;;10.48;;
57047;SDS011;42934;54.294;18.598;2024-03-22T07:40:13;20.23;;;10.43;;
57047;SDS011;42934;54.294;18.598;2024-03-22T07:42:42;22.35;;;10.40;;
57047;SDS011;42934;54.294;18.598;2024-03-22T07:45:09;20.63;;;10.18;;
57047;SDS011;42934;54.294;18.598;2024-03-22T07:47:38;19.05;;;9.35;;
57047;SDS011;42934;54.294;18.598;2024-03-22T07:50:09;19.05;;;10.45;;
57047;SDS011;42934;54.294;18.598;2024-03-22T07:52:38;18.98;;;9.93;;
57047;SDS011;42934;54.294;18.598;2024-03-22T07:55:06;20.92;;;10.50;;
57047;SDS011;42934;54.294;18.598;2024-03-22T07:57:34;17.95;;;10.18;;
57047;SDS011;42934;54.294;18.598;2024-03-22T08:00:02;19.23;;;10.20;;
57047;SDS011;42934;54.294;18.598;2024-03-22T08:02:37;18.83;;;10.88;;
57047;SDS011;42934;54.294;18.598;2024-03-22T08:05:05;23.95;;;11.93;;
57047;SDS011;42934;54.294;18.598;2024-03-22T08:07:35;21.30;;;11.02;;
57047;SDS011;42934;54.294;18.598;2024-03-22T08:10:02;19.38;;;10.75;;
57047;SDS011;42934;54.294;18.598;2024-03-22T08:12:31;23.00;;;10.95;;
57047;SDS011;42934;54.294;18.598;2024-03-22T08:14:58;22.02;;;11.20;;
57047;SDS011;42934;54.294;18.598;2024-03-22T08:17:27;18.77;;;10.68;;
57047;SDS011;42934;54.294;18.598;2024-03-22T08:19:54;18.08;;;10.18;;
57047;SDS011;42934;54.294;18.598;2024-03-22T08:22:22;23.40;;;12.05;;
57047;SDS011;42934;54.294;18.598;2024-03-22T08:24:51;21.00;;;11.10;;
57047;SDS011;42934;54.294;18.598;2024-03-22T08:27:22;21.92;;;11.20;;
57047;SDS011;42934;54.294;18.598;2024-03-22T08:29:50;20.17;;;10.43;;
57047;SDS011;42934;54.294;18.598;2024-03-22T08:32:19;19.02;;;10.80;;
57047;SDS011;42934;54.294;18.598;2024-03-22T08:34:48;22.45;;;11.30;;
57047;SDS011;42934;54.294;18.598;2024-03-22T08:37:17;21.83;;;11.32;;
57047;SDS011;42934;54.294;18.598;2024-03-22T08:39:44;20.23;;;10.98;;
57047;SDS011;42934;54.294;18.598;2024-03-22T08:42:15;20.88;;;11.10;;
57047;SDS011;42934;54.294;18.598;2024-03-22T08:44:42;22.08;;;11.48;;
57047;SDS011;42934;54.294;18.598;2024-03-22T08:47:10;23.25;;;10.77;;
57047;SDS011;42934;54.294;18.598;2024-03-22T08:49:38;20.48;;;11.10;;
57047;SDS011;42934;54.294;18.598;2024-03-22T08:52:07;21.27;;;11.27;;
57047;SDS011;42934;54.294;18.598;2024-03-22T08:54:34;18.17;;;10.50;;
57047;SDS011;42934;54.294;18.598;2024-03-22T08:57:03;20.13;;;11.48;;
57047;SDS011;42934;54.294;18.598;2024-03-22T08:59:32;21.45;;;11.75;;
57047;SDS011;42934;54.294;18.598;2024-03-22T09:02:01;21.35;;;11.45;;
57047;SDS011;42934;54.294;18.598;2024-03-22T09:04:28;21.25;;;11.25;;
57047;SDS011;42934;54.294;18.598;2024-03-22T09:06:56;22.70;;;11.43;;
57047;SDS011;42934;54.294;18.598;2024-03-22T09:09:24;22.48;;;12.02;;
57047;SDS011;42934;54.294;18.598;2024-03-22T09:11:52;21.38;;;11.05;;
57047;SDS011;42934;54.294;18.598;2024-03-22T09:14:20;22.92;;;11.63;;
57047;SDS011;42934;54.294;18.598;2024-03-22T09:16:49;21.73;;;11.85;;
57047;SDS011;42934;54.294;18.598;2024-03-22T09:19:17;22.60;;;11.90;;
57047;SDS011;42934;54.294;18.598;2024-03-22T09:21:45;24.42;;;12.55;;
57047;SDS011;42934;54.294;18.598;2024-03-22T09:24:12;25.02;;;13.50;;
57047;SDS011;42934;54.294;18.598;2024-03-22T09:26:41;26.52;;;14.02;;
57047;SDS011;42934;54.294;18.598;2024-03-22T09:29:08;22.95;;;13.00;;
57047;SDS011;42934;54.294;18.598;2024-03-22T09:31:36;28.88;;;14.68;;
57047;SDS011;42934;54.294;18.598;2024-03-22T09:34:05;24.40;;;14.27;;
57047;SDS011;42934;54.294;18.598;2024-03-22T09:36:33;26.33;;;14.98;;
57047;SDS011;42934;54.294;18.598;2024-03-22T09:39:01;27.15;;;14.77;;
57047;SDS011;42934;54.294;18.598;2024-03-22T09:41:31;26.38;;;14.77;;
57047;SDS011;42934;54.294;18.598;2024-03-22T09:43:58;28.33;;;15.30;;
57047;SDS011;42934;54.294;18.598;2024-03-22T09:46:29;30.00;;;15.07;;
57047;SDS011;42934;54.294;18.598;2024-03-22T09:48:56;30.45;;;15.32;;
57047;SDS011;42934;54.294;18.598;2024-03-22T09:51:29;32.20;;;15.98;;
57047;SDS011;42934;54.294;18.598;2024-03-22T09:53:58;28.35;;;15.43;;
57047;SDS011;42934;54.294;18.598;2024-03-22T09:56:27;28.38;;;16.10;;
57047;SDS011;42934;54.294;18.598;2024-03-22T09:58:57;30.02;;;16.90;;
57047;SDS011;42934;54.294;18.598;2024-03-22T10:01:26;29.27;;;16.30;;
57047;SDS011;42934;54.294;18.598;2024-03-22T10:03:54;26.77;;;15.55;;
57047;SDS011;42934;54.294;18.598;2024-03-22T10:06:23;27.90;;;15.88;;
57047;SDS011;42934;54.294;18.598;2024-03-22T10:08:52;31.35;;;16.85;;
57047;SDS011;42934;54.294;18.598;2024-03-22T10:11:20;29.17;;;15.90;;
57047;SDS011;42934;54.294;18.598;2024-03-22T10:13:48;29.65;;;16.23;;
57047;SDS011;42934;54.294;18.598;2024-03-22T10:16:17;29.73;;;16.30;;
57047;SDS011;42934;54.294;18.598;2024-03-22T10:18:45;31.67;;;16.70;;
57047;SDS011;42934;54.294;18.598;2024-03-22T10:21:16;31.73;;;16.95;;
57047;SDS011;42934;54.294;18.598;2024-03-22T10:23:46;33.28;;;16.60;;
57047;SDS011;42934;54.294;18.598;2024-03-22T10:26:16;29.92;;;16.55;;
57047;SDS011;42934;54.294;18.598;2024-03-22T10:28:44;29.38;;;16.17;;
57047;SDS011;42934;54.294;18.598;2024-03-22T10:31:11;31.35;;;16.60;;
57047;SDS011;42934;54.294;18.598;2024-03-22T10:33:40;30.00;;;16.98;;
57047;SDS011;42934;54.294;18.598;2024-03-22T10:36:10;27.70;;;16.63;;
57047;SDS011;42934;54.294;18.598;2024-03-22T10:38:39;29.17;;;16.23;;
57047;SDS011;42934;54.294;18.598;2024-03-22T10:41:08;30.33;;;16.02;;
57047;SDS011;42934;54.294;18.598;2024-03-22T10:43:37;30.55;;;16.15;;
57047;SDS011;42934;54.294;18.598;2024-03-22T10:46:05;31.25;;;17.05;;
57047;SDS011;42934;54.294;18.598;2024-03-22T10:48:35;28.08;;;15.65;;
57047;SDS011;42934;54.294;18.598;2024-03-22T10:51:04;29.92;;;15.95;;
57047;SDS011;42934;54.294;18.598;2024-03-22T10:53:33;31.13;;;16.52;;
57047;SDS011;42934;54.294;18.598;2024-03-22T10:56:02;29.98;;;16.75;;
57047;SDS011;42934;54.294;18.598;2024-03-22T10:58:32;25.20;;;14.38;;
57047;SDS011;42934;54.294;18.598;2024-03-22T11:01:00;29.40;;;15.05;;
57047;SDS011;42934;54.294;18.598;2024-03-22T11:03:31;29.58;;;15.15;;
57047;SDS011;42934;54.294;18.598;2024-03-22T11:06:00;27.40;;;15.70;;
57047;SDS011;42934;54.294;18.598;2024-03-22T11:08:28;28.52;;;14.98;;
57047;SDS011;42934;54.294;18.598;2024-03-22T11:10:56;29.13;;;16.83;;
57047;SDS011;42934;54.294;18.598;2024-03-22T11:13:24;28.88;;;15.68;;
57047;SDS011;42934;54.294;18.598;2024-03-22T11:15:52;28.73;;;15.68;;
57047;SDS011;42934;54.294;18.598;2024-03-22T11:18:21;27.88;;;15.75;;
57047;SDS011;42934;54.294;18.598;2024-03-22T11:20:49;27.35;;;15.05;;
57047;SDS011;42934;54.294;18.598;2024-03-22T11:23:18;25.87;;;14.60;;
57047;SDS011;42934;54.294;18.598;2024-03-22T11:25:46;26.35;;;14.82;;
57047;SDS011;42934;54.294;18.598;2024-03-22T11:28:14;26.27;;;15.00;;
57047;SDS011;42934;54.294;18.598;2024-03-22T11:30:42;28.75;;;15.70;;
57047;SDS011;42934;54.294;18.598;2024-03-22T11:33:10;29.27;;;15.73;;
57047;SDS011;42934;54.294;18.598;2024-03-22T11:35:39;26.98;;;15.32;;
57047;SDS011;42934;54.294;18.598;2024-03-22T11:38:08;28.67;;;14.80;;
57047;SDS011;42934;54.294;18.598;2024-03-22T11:40:36;28.10;;;15.05;;
57047;SDS011;42934;54.294;18.598;2024-03-22T11:43:04;25.38;;;14.40;;
57047;SDS011;42934;54.294;18.598;2024-03-22T11:45:32;27.13;;;14.73;;
57047;SDS011;42934;54.294;18.598;2024-03-22T11:48:01;27.42;;;15.20;;
57047;SDS011;42934;54.294;18.598;2024-03-22T11:50:29;27.17;;;15.27;;
57047;SDS011;42934;54.294;18.598;2024-03-22T11:52:59;27.20;;;14.68;;
57047;SDS011;42934;54.294;18.598;2024-03-22T11:55:27;29.40;;;14.55;;
57047;SDS011;42934;54.294;18.598;2024-03-22T11:57:58;27.35;;;15.20;;
57047;SDS011;42934;54.294;18.598;2024-03-22T12:00:25;29.15;;;15.15;;
57047;SDS011;42934;54.294;18.598;2024-03-22T12:02:54;26.67;;;13.25;;
57047;SDS011;42934;54.294;18.598;2024-03-22T12:05:22;29.73;;;14.20;;
57047;SDS011;42934;54.294;18.598;2024-03-22T12:07:51;27.40;;;14.85;;
57047;SDS011;42934;54.294;18.598;2024-03-22T12:10:20;27.50;;;15.48;;
57047;SDS011;42934;54.294;18.598;2024-03-22T12:12:48;28.55;;;15.20;;
57047;SDS011;42934;54.294;18.598;2024-03-22T12:15:15;28.35;;;15.25;;
57047;SDS011;42934;54.294;18.598;2024-03-22T12:17:43;26.02;;;13.93;;
57047;SDS011;42934;54.294;18.598;2024-03-22T12:20:11;27.05;;;14.63;;
57047;SDS011;42934;54.294;18.598;2024-03-22T12:22:41;27.13;;;14.70;;
57047;SDS011;42934;54.294;18.598;2024-03-22T12:25:08;27.05;;;14.70;;
57047;SDS011;42934;54.294;18.598;2024-03-22T12:27:39;25.75;;;14.02;;
57047;SDS011;42934;54.294;18.598;2024-03-22T12:30:06;24.90;;;13.43;;
57047;SDS011;42934;54.294;18.598;2024-03-22T12:32:35;22.90;;;13.27;;
57047;SDS011;42934;54.294;18.598;2024-03-22T12:35:02;23.60;;;13.57;;
57047;SDS011;42934;54.294;18.598;2024-03-22T12:37:31;24.27;;;13.98;;
57047;SDS011;42934;54.294;18.598;2024-03-22T12:39:58;24.85;;;13.23;;
57047;SDS011;42934;54.294;18.598;2024-03-22T12:42:27;22.50;;;13.32;;
57047;SDS011;42934;54.294;18.598;2024-03-22T12:44:56;23.15;;;12.82;;
57047;SDS011;42934;54.294;18.598;2024-03-22T12:47:24;22.83;;;12.85;;
57047;SDS011;42934;54.294;18.598;2024-03-22T12:49:52;26.90;;;14.00;;
57047;SDS011;42934;54.294;18.598;2024-03-22T12:52:20;24.40;;;14.10;;
57047;SDS011;42934;54.294;18.598;2024-03-22T12:54:48;20.88;;;12.80;;
57047;SDS011;42934;54.294;18.598;2024-03-22T12:57:16;23.85;;;13.52;;
57047;SDS011;42934;54.294;18.598;2024-03-22T12:59:44;21.92;;;13.35;;
57047;SDS011;42934;54.294;18.598;2024-03-22T13:02:13;19.70;;;12.23;;
57047;SDS011;42934;54.294;18.598;2024-03-22T13:04:41;21.05;;;12.43;;
57047;SDS011;42934;54.294;18.598;2024-03-22T13:07:09;20.80;;;11.98;;
57047;SDS011;42934;54.294;18.598;2024-03-22T13:09:37;18.60;;;12.13;;
57047;SDS011;42934;54.294;18.598;2024-03-22T13:12:05;22.10;;;12.40;;
57047;SDS011;42934;54.294;18.598;2024-03-22T13:14:33;20.85;;;12.45;;
57047;SDS011;42934;54.294;18.598;2024-03-22T13:17:02;21.63;;;12.35;;
57047;SDS011;42934;54.294;18.598;2024-03-22T13:19:31;19.90;;;11.95;;
57047;SDS011;42934;54.294;18.598;2024-03-22T13:21:59;19.02;;;11.60;;
57047;SDS011;42934;54.294;18.598;2024-03-22T13:24:26;21.77;;;12.80;;
57047;SDS011;42934;54.294;18.598;2024-03-22T13:26:54;21.67;;;12.95;;
57047;SDS011;42934;54.294;18.598;2024-03-22T13:29:22;19.33;;;12.40;;
57047;SDS011;42934;54.294;18.598;2024-03-22T13:31:50;20.95;;;12.60;;
57047;SDS011;42934;54.294;18.598;2024-03-22T13:34:18;21.30;;;13.05;;
57047;SDS011;42934;54.294;18.598;2024-03-22T13:36:47;21.77;;;12.25;;
57047;SDS011;42934;54.294;18.598;2024-03-22T13:39:15;21.00;;;12.68;;
57047;SDS011;42934;54.294;18.598;2024-03-22T13:41:43;20.95;;;13.15;;
57047;SDS011;42934;54.294;18.598;2024-03-22T13:44:10;24.15;;;13.98;;
57047;SDS011;42934;54.294;18.598;2024-03-22T13:46:39;23.20;;;13.70;;
57047;SDS011;42934;54.294;18.598;2024-03-22T13:49:12;22.95;;;14.38;;
57047;SDS011;42934;54.294;18.598;2024-03-22T13:51:42;21.60;;;14.15;;
57047;SDS011;42934;54.294;18.598;2024-03-22T13:54:12;23.83;;;14.15;;
57047;SDS011;42934;54.294;18.598;2024-03-22T13:56:40;25.58;;;15.38;;
57047;SDS011;42934;54.294;18.598;2024-03-22T13:59:10;28.35;;;15.32;;
57047;SDS011;42934;54.294;18.598;2024-03-22T14:01:41;29.15;;;16.85;;
57047;SDS011;42934;54.294;18.598;2024-03-22T14:04:11;27.40;;;16.88;;
57047;SDS011;42934;54.294;18.598;2024-03-22T14:06:40;30.25;;;16.90;;
57047;SDS011;42934;54.294;18.598;2024-03-22T14:09:08;31.48;;;17.58;;
57047;SDS011;42934;54.294;18.598;2024-03-22T14:11:40;27.70;;;17.17;;
57047;SDS011;42934;54.294;18.598;2024-03-22T14:14:11;32.03;;;18.20;;